Terminal Aerodrome Forecast
Issued by NWS

Home | Current Version | Previous Version | Text Only | Print | Product List | Glossary On
Versions: 1 2 3 4 5 6 7 8 9 10 11 12 13 14 15 16 17 18 19 20 21 22 23 24 25
000
FTAK31 PANC 210541
TAFADL
TAF
PADL 210541Z 2106/2206 VRB03KT 5SM BR OVC006
      TEMPO 2106/2108 2SM -FZDZ BR
     FM210800 VRB06KT 2SM -FZDZ BR SCT002 OVC006
     FM211200 VRB05KT 3SM BR SCT006 OVC010
     FM220200 14007KT 1SM -RA BR SCT002 OVC006=

USA.gov is the U.S. government's official web portal to all federal, state and local government web resources and services.